Time;durP1;ratioP1;P1;durP2;ratioP2;P2;SDS_P1;SDS_P2;PMS_P1;PMS_P2;Temp;Humidity;BMP_temperature;BMP_pressure;BME280_temperature;BME280_humidity;BME280_pressure;Samples;Min_cycle;Max_cycle;Signal;HPM_P1;HPM_P2
2022/04/14 00:02:32;;;;;;;10.53;7.13;;;10.30;65.80;;;;;;10289804;28;20273;-84
2022/04/14 00:07:36;;;;;;;13.97;8.73;;;11.20;72.30;;;;;;10288529;28;20230;-83
2022/04/14 00:12:40;;;;;;;7.03;4.50;;;11.80;71.10;;;;;;10287235;28;20248;-83
2022/04/14 00:17:43;;;;;;;13.70;9.47;;;12.50;69.80;;;;;;10289256;28;20316;-83
2022/04/14 00:22:45;;;;;;;14.63;8.40;;;12.50;67.90;;;;;;10288966;28;20229;-84
2022/04/14 00:27:48;;;;;;;12.97;7.73;;;11.70;69.10;;;;;;10271036;28;20280;-83
2022/04/14 00:32:50;;;;;;;6.33;4.77;;;11.70;70.10;;;;;;10269535;28;20241;-84
2022/04/14 00:37:53;;;;;;;9.90;7.20;;;12.90;68.70;;;;;;10288764;28;20667;-83
2022/04/14 00:42:55;;;;;;;11.90;7.30;;;13.50;66.50;;;;;;10288802;28;20206;-83
2022/04/14 00:47:58;;;;;;;12.03;7.30;;;13.50;66.00;;;;;;10286259;28;20295;-84
2022/04/14 00:53:01;;;;;;;9.03;6.00;;;13.80;65.00;;;;;;10287088;28;20260;-84
2022/04/14 00:58:04;;;;;;;8.50;5.77;;;13.90;65.20;;;;;;10269742;28;20262;-83
2022/04/14 01:03:07;;;;;;;17.23;10.67;;;13.80;64.80;;;;;;10269860;28;20230;-84
2022/04/14 01:08:10;;;;;;;13.97;9.37;;;13.10;64.90;;;;;;10287843;28;20276;-84
2022/04/14 01:13:17;;;;;;;14.90;9.57;;;12.70;66.90;;;;;;10288021;28;20207;-83
2022/04/14 01:18:19;;;;;;;22.00;13.67;;;12.70;66.80;;;;;;10287520;28;20323;-83
2022/04/14 01:23:44;;;;;;;18.77;12.13;;;11.70;67.60;;;;;;10287125;28;20233;-83
2022/04/14 01:28:46;;;;;;;16.23;10.20;;;11.30;69.60;;;;;;10277493;28;20298;-83
2022/04/14 01:33:49;;;;;;;13.83;7.93;;;11.50;71.10;;;;;;10283201;28;20237;-84
2022/04/14 01:38:51;;;;;;;20.30;13.53;;;12.10;69.60;;;;;;10287629;28;20716;-83
2022/04/14 01:43:53;;;;;;;15.63;10.37;;;12.40;65.50;;;;;;10264929;28;20694;-83
2022/04/14 01:48:57;;;;;;;12.27;8.90;;;12.20;67.10;;;;;;10264237;28;20215;-84
2022/04/14 01:54:00;;;;;;;7.57;5.63;;;12.10;69.20;;;;;;10287886;28;20809;-83
2022/04/14 01:59:02;;;;;;;10.67;8.07;;;13.00;67.60;;;;;;10267410;28;20257;-83
2022/04/14 02:04:07;;;;;;;10.53;7.07;;;13.30;66.20;;;;;;10256222;28;20632;-83
2022/04/14 02:09:09;;;;;;;16.00;11.47;;;13.30;65.90;;;;;;10246634;29;20308;-83
2022/04/14 02:14:12;;;;;;;10.23;7.43;;;12.50;64.80;;;;;;10252874;28;20238;-84
2022/04/14 02:19:14;;;;;;;7.80;6.77;;;11.90;69.90;;;;;;10289816;28;20791;-84
2022/04/14 02:24:17;;;;;;;21.00;11.87;;;12.60;67.70;;;;;;10256681;28;20202;-84
2022/04/14 02:29:20;;;;;;;21.03;14.63;;;12.30;67.00;;;;;;10258609;29;20212;-83
2022/04/14 02:34:23;;;;;;;20.20;12.00;;;11.00;69.30;;;;;;10253944;28;20693;-83
2022/04/14 02:39:26;;;;;;;23.13;14.23;;;11.60;71.10;;;;;;10274172;28;20646;-84
2022/04/14 02:44:28;;;;;;;23.27;15.10;;;11.30;70.30;;;;;;10275381;28;20229;-84
2022/04/14 02:49:31;;;;;;;19.30;12.70;;;11.00;70.40;;;;;;10289327;28;20251;-84
2022/04/14 02:54:37;;;;;;;26.10;16.53;;;10.60;73.40;;;;;;10291692;28;20241;-84
2022/04/14 02:59:40;;;;;;;28.37;16.83;;;10.20;71.20;;;;;;10275286;28;20304;-84
2022/04/14 03:04:42;;;;;;;20.23;12.20;;;9.40;74.60;;;;;;10291682;28;20688;-84
2022/04/14 03:09:45;;;;;;;14.73;9.23;;;9.90;75.60;;;;;;10257011;28;20237;-83
2022/04/14 03:14:48;;;;;;;18.80;11.23;;;10.40;75.00;;;;;;10267210;28;20218;-84
2022/04/14 03:19:52;;;;;;;23.70;15.07;;;10.70;73.10;;;;;;10283019;28;20252;-83
2022/04/14 03:24:55;;;;;;;19.90;11.87;;;10.70;71.90;;;;;;10289806;28;20233;-83
2022/04/14 03:29:57;;;;;;;25.80;17.00;;;9.60;75.40;;;;;;10291512;28;20628;-82
2022/04/14 03:35:04;;;;;;;13.83;8.43;;;9.00;73.60;;;;;;10277910;28;20697;-83
2022/04/14 03:40:07;;;;;;;9.77;7.60;;;9.50;79.50;;;;;;10262511;28;20257;-83
2022/04/14 03:45:10;;;;;;;6.97;5.43;;;11.20;74.80;;;;;;10289685;28;20233;-83
2022/04/14 03:50:12;;;;;;;13.13;7.90;;;12.00;71.80;;;;;;10272866;28;20213;-83
2022/04/14 03:55:15;;;;;;;14.63;9.33;;;12.40;70.10;;;;;;10274125;28;20242;-83
2022/04/14 04:00:17;;;;;;;13.53;10.07;;;11.90;70.30;;;;;;10267796;28;20253;-83
2022/04/14 04:05:20;;;;;;;16.43;11.17;;;11.00;72.10;;;;;;10249998;29;20281;-83
2022/04/14 04:10:22;;;;;;;29.00;19.70;;;10.50;74.00;;;;;;10249782;28;20242;-83
2022/04/14 04:15:25;;;;;;;13.53;9.50;;;10.00;72.50;;;;;;10281356;28;20305;-83
2022/04/14 04:20:27;;;;;;;16.03;10.43;;;11.00;73.90;;;;;;10288566;28;20261;-84
2022/04/14 04:25:30;;;;;;;29.97;17.77;;;10.60;75.10;;;;;;10271633;28;20633;-84
2022/04/14 04:30:32;;;;;;;26.60;14.87;;;10.80;70.60;;;;;;10250694;28;20289;-83
2022/04/14 04:35:35;;;;;;;21.13;13.33;;;10.00;74.50;;;;;;10254493;28;20225;-83
2022/04/14 04:40:37;;;;;;;25.40;14.00;;;10.40;74.20;;;;;;10288234;28;20261;-83
2022/04/14 04:45:40;;;;;;;20.63;12.37;;;9.40;75.00;;;;;;10285203;28;20677;-84
2022/04/14 04:50:42;;;;;;;19.20;12.23;;;10.70;75.50;;;;;;10287414;28;20596;-84
2022/04/14 04:55:45;;;;;;;7.37;5.57;;;10.50;74.90;;;;;;10257889;28;20649;-84
2022/04/14 05:00:48;;;;;;;22.83;13.13;;;11.60;73.50;;;;;;10272774;28;20607;-94
2022/04/14 05:05:50;;;;;;;19.93;11.30;;;13.60;65.10;;;;;;10244695;28;20210;-94
2022/04/14 05:10:53;;;;;;;25.37;16.20;;;13.90;65.50;;;;;;10289959;28;20209;-94
2022/04/14 05:15:56;;;;;;;20.50;14.27;;;13.90;63.50;;;;;;10274693;28;20262;-93
2022/04/14 05:20:59;;;;;;;19.63;12.63;;;13.70;64.20;;;;;;10243895;28;20250;-93
2022/04/14 05:26:01;;;;;;;23.67;13.27;;;14.10;63.20;;;;;;10258376;28;20234;-93
2022/04/14 05:31:04;;;;;;;26.23;17.23;;;14.20;62.70;;;;;;10244557;28;20207;-93
2022/04/14 05:36:07;;;;;;;22.97;15.60;;;13.70;62.40;;;;;;10260992;28;20279;-92
2022/04/14 05:41:10;;;;;;;27.13;18.83;;;13.80;63.50;;;;;;10331969;28;20198;-94
2022/04/14 05:46:12;;;;;;;25.27;15.20;;;13.80;61.80;;;;;;10317529;28;20686;-94
2022/04/14 05:51:15;;;;;;;21.50;13.13;;;14.10;62.80;;;;;;10306489;28;20212;-93
2022/04/14 05:56:18;;;;;;;26.70;16.00;;;14.40;62.50;;;;;;10299303;28;20259;-94
2022/04/14 06:01:21;;;;;;;16.57;11.23;;;14.60;61.60;;;;;;10264844;28;20248;-94
2022/04/14 06:06:24;;;;;;;29.70;18.43;;;14.70;61.90;;;;;;10281265;28;20209;-93
2022/04/14 06:11:28;;;;;;;27.37;17.93;;;14.70;60.00;;;;;;10281792;28;20210;-94
2022/04/14 06:16:31;;;;;;;30.70;20.23;;;14.30;60.60;;;;;;10283403;28;20257;-94
2022/04/14 06:21:34;;;;;;;34.83;21.10;;;14.00;61.10;;;;;;10282406;28;20558;-94
2022/04/14 06:26:36;;;;;;;20.37;14.17;;;14.10;60.90;;;;;;10266750;28;20635;-93
2022/04/14 06:31:39;;;;;;;43.50;21.47;;;14.00;61.90;;;;;;10273992;28;20214;-94
2022/04/14 06:36:42;;;;;;;19.57;12.67;;;13.70;61.80;;;;;;10285912;28;20289;-95
2022/04/14 06:41:44;;;;;;;34.30;21.37;;;14.10;62.60;;;;;;10283091;28;20248;-95
2022/04/14 06:46:51;;;;;;;35.33;19.83;;;14.40;59.50;;;;;;10231343;29;20214;-94
2022/04/14 06:51:53;;;;;;;31.00;18.77;;;14.30;61.40;;;;;;10197679;29;20203;-94
2022/04/14 06:56:57;;;;;;;34.30;21.93;;;14.20;62.40;;;;;;10195568;29;20227;-95
2022/04/14 07:02:23;;;;;;;30.40;20.40;;;14.00;62.20;;;;;;10207580;29;20207;-96
2022/04/14 07:07:44;;;;;;;37.57;22.70;;;13.50;63.20;;;;;;10204054;29;20223;-94
2022/04/14 07:12:49;;;;;;;31.37;17.87;;;13.50;63.40;;;;;;10144796;29;20265;-95
2022/04/14 07:17:54;;;;;;;38.17;22.90;;;13.70;64.50;;;;;;10098495;29;20282;-94
2022/04/14 07:22:59;;;;;;;38.43;23.70;;;13.90;63.00;;;;;;10081162;29;20205;-94
2022/04/14 07:28:03;;;;;;;33.53;19.57;;;13.90;63.10;;;;;;10120121;29;20213;-95
2022/04/14 07:33:07;;;;;;;41.53;24.83;;;13.90;63.90;;;;;;10096271;29;20286;-94
2022/04/14 07:38:10;;;;;;;36.10;20.00;;;14.00;64.10;;;;;;10077486;29;20259;-95
2022/04/14 07:43:13;;;;;;;27.27;19.37;;;14.10;63.30;;;;;;10100625;29;20244;-94
2022/04/14 07:48:21;;;;;;;32.87;21.03;;;14.40;63.30;;;;;;10197030;29;20210;-92
2022/04/14 07:53:24;;;;;;;39.70;26.10;;;14.70;62.70;;;;;;10230254;29;20238;-93
2022/04/14 07:58:26;;;;;;;41.03;25.50;;;15.00;62.70;;;;;;10208764;29;20297;-92
2022/04/14 08:03:29;;;;;;;27.00;19.00;;;14.90;62.50;;;;;;10234108;28;20233;-94
2022/04/14 08:08:31;;;;;;;15.57;10.00;;;15.10;62.80;;;;;;10282269;28;20746;-94
2022/04/14 08:13:37;;;;;;;45.80;24.40;;;15.50;61.10;;;;;;10261757;28;20210;-94
2022/04/14 08:18:40;;;;;;;41.57;24.97;;;15.50;62.10;;;;;;10269613;28;20244;-95
2022/04/14 08:23:46;;;;;;;34.13;22.90;;;15.70;61.60;;;;;;10284200;28;20186;-93
2022/04/14 08:28:49;;;;;;;45.40;27.57;;;15.90;60.80;;;;;;10286802;28;20678;-93
2022/04/14 08:34:03;;;;;;;37.00;23.47;;;15.90;62.20;;;;;;10305926;28;20206;-92
2022/04/14 08:39:06;;;;;;;48.47;28.80;;;16.00;62.10;;;;;;10281573;28;20280;-93
2022/04/14 08:44:17;;;;;;;53.83;29.37;;;15.90;62.70;;;;;;10247095;28;20245;-91
2022/04/14 08:49:23;;;;;;;28.77;16.53;;;16.10;62.70;;;;;;10260414;28;20749;-93
2022/04/14 08:54:27;;;;;;;19.00;11.60;;;16.30;60.60;;;;;;10289225;28;20210;-94
2022/04/14 08:59:37;;;;;;;30.73;17.23;;;16.50;60.10;;;;;;10273940;28;20286;-93
2022/04/14 09:04:41;;;;;;;30.47;17.47;;;16.80;60.40;;;;;;10272233;28;20209;-93
2022/04/14 09:09:45;;;;;;;13.20;9.47;;;16.90;60.50;;;;;;10264999;28;20226;-93
2022/04/14 09:14:48;;;;;;;13.27;9.80;;;16.90;57.40;;;;;;10218188;29;20213;-92
2022/04/14 09:19:51;;;;;;;28.37;14.40;;;17.00;57.20;;;;;;10214421;28;20269;-92
2022/04/14 09:24:57;;;;;;;16.37;10.13;;;17.20;56.50;;;;;;10239142;29;20210;-93
2022/04/14 09:30:03;;;;;;;12.20;9.13;;;17.10;56.80;;;;;;10222584;29;20739;-94
2022/04/14 09:35:16;;;;;;;14.30;9.23;;;17.10;56.70;;;;;;10231627;29;20258;-94
2022/04/14 09:40:21;;;;;;;14.53;8.73;;;17.20;56.80;;;;;;10164881;29;20263;-92
2022/04/14 09:45:29;;;;;;;12.00;7.87;;;17.20;56.70;;;;;;10195903;29;20740;-92
2022/04/14 09:50:43;;;;;;;15.47;8.73;;;17.20;56.90;;;;;;10194733;29;20251;-92
2022/04/14 09:55:52;;;;;;;13.07;8.97;;;17.30;56.70;;;;;;10195552;29;20238;-92
2022/04/14 10:00:58;;;;;;;18.87;11.30;;;17.40;56.50;;;;;;10195850;29;20266;-93
2022/04/14 10:06:10;;;;;;;10.13;7.87;;;17.60;56.00;;;;;;10194890;29;20649;-93
2022/04/14 10:11:12;;;;;;;15.97;9.97;;;17.40;56.30;;;;;;10194537;29;20298;-92
2022/04/14 10:16:20;;;;;;;12.83;9.03;;;17.70;57.00;;;;;;9853513;29;10000552;-93
2022/04/14 10:21:23;;;;;;;12.83;8.10;;;17.40;56.40;;;;;;10205552;29;20235;-94
2022/04/14 10:26:26;;;;;;;12.77;8.63;;;17.50;56.30;;;;;;10247523;23;20235;-81
2022/04/14 10:31:28;;;;;;;12.90;9.23;;;17.50;56.30;;;;;;10289602;28;20297;-81
2022/04/14 10:36:36;;;;;;;12.70;9.00;;;17.50;57.30;;;;;;10289200;28;20290;-81
2022/04/14 10:41:42;;;;;;;18.83;11.40;;;17.50;56.20;;;;;;10270682;28;20253;-81
2022/04/14 10:46:48;;;;;;;14.07;8.47;;;17.70;57.50;;;;;;10281053;28;20285;-81
2022/04/14 10:51:53;;;;;;;13.90;9.33;;;17.50;56.20;;;;;;10280215;28;20778;-81
2022/04/14 10:56:56;;;;;;;13.00;8.63;;;17.70;56.30;;;;;;10277735;28;20263;-81
2022/04/14 11:02:04;;;;;;;25.37;14.93;;;17.90;58.00;;;;;;10254819;28;20270;-82
2022/04/14 11:07:10;;;;;;;12.43;8.17;;;18.30;85.20;;;;;;10245761;28;20242;-81
2022/04/14 11:12:14;;;;;;;11.83;7.97;;;17.80;55.80;;;;;;10265055;28;20248;-81
2022/04/14 11:17:37;;;;;;;12.67;9.07;;;17.70;55.90;;;;;;10278536;28;20242;-81
2022/04/14 11:23:09;;;;;;;12.33;8.43;;;17.70;56.10;;;;;;10268096;28;20243;-81
2022/04/14 11:28:22;;;;;;;12.53;8.10;;;17.60;56.20;;;;;;10285922;28;20299;-81
2022/04/14 11:33:30;;;;;;;11.20;8.77;;;17.50;56.30;;;;;;10286043;28;20247;-81
2022/04/14 11:38:52;;;;;;;11.60;8.07;;;17.60;56.20;;;;;;10285690;28;20312;-81
2022/04/14 11:43:58;;;;;;;16.73;10.47;;;17.60;56.30;;;;;;10283993;28;20225;-81
2022/04/14 11:49:00;;;;;;;20.93;10.37;;;18.10;60.10;;;;;;10285023;28;20777;-80
2022/04/14 11:54:03;;;;;;;18.00;10.33;;;18.60;59.70;;;;;;10283831;28;20312;-81
2022/04/14 11:59:33;;;;;;;17.17;10.13;;;18.90;60.70;;;;;;10284575;28;20322;-81
2022/04/14 12:04:37;;;;;;;15.63;8.93;;;18.80;62.20;;;;;;10285553;28;20244;-80
2022/04/14 12:09:40;;;;;;;13.23;9.67;;;18.60;62.10;;;;;;10284745;28;20310;-81
2022/04/14 12:14:45;;;;;;;14.77;9.50;;;18.20;62.60;;;;;;10258577;28;20306;-81
2022/04/14 12:19:53;;;;;;;17.13;8.90;;;18.10;62.20;;;;;;10283010;28;20336;-81
2022/04/14 12:25:01;;;;;;;24.27;13.00;;;18.30;61.50;;;;;;10267304;28;20408;-82
2022/04/14 12:30:13;;;;;;;14.10;8.50;;;19.00;58.80;;;;;;10263983;28;20273;-82
2022/04/14 12:35:38;;;;;;;14.00;8.63;;;18.80;60.20;;;;;;10268540;28;20248;-81
2022/04/14 12:41:04;;;;;;;13.87;7.67;;;18.30;61.00;;;;;;10309737;28;20270;-81
2022/04/14 12:46:27;;;;;;;13.70;7.87;;;18.00;61.20;;;;;;10276339;28;20238;-81
2022/04/14 12:51:31;;;;;;;17.23;9.50;;;17.90;61.30;;;;;;10274067;28;20318;-81
2022/04/14 12:56:36;;;;;;;14.23;8.73;;;17.90;61.10;;;;;;10285855;28;20818;-80
2022/04/14 13:01:52;;;;;;;14.33;7.20;;;17.90;61.20;;;;;;10266601;28;20264;-81
2022/04/14 13:07:00;;;;;;;10.63;8.90;;;18.00;60.70;;;;;;10257812;28;20288;-81
2022/04/14 13:12:04;;;;;;;20.43;7.90;;;17.90;60.80;;;;;;10243501;28;20264;-81
2022/04/14 13:17:07;;;;;;;9.93;8.23;;;17.90;60.60;;;;;;10267697;28;20245;-81
2022/04/14 13:22:10;;;;;;;12.97;9.13;;;17.70;60.80;;;;;;10284564;28;20310;-81
2022/04/14 13:27:12;;;;;;;10.33;7.47;;;17.70;60.70;;;;;;10284121;28;20358;-81
2022/04/14 13:32:15;;;;;;;11.90;7.40;;;18.70;58.70;;;;;;10284799;28;20315;-82
2022/04/14 13:37:17;;;;;;;12.60;7.53;;;18.40;59.10;;;;;;10285195;28;20234;-82
2022/04/14 13:42:20;;;;;;;18.93;9.63;;;17.90;60.10;;;;;;10266908;28;20280;-83
2022/04/14 13:47:22;;;;;;;29.10;15.43;;;18.00;60.50;;;;;;10284936;28;21076;-81
2022/04/14 13:52:25;;;;;;;15.20;8.87;;;19.40;57.50;;;;;;10267718;28;20265;-83
2022/04/14 13:57:27;;;;;;;17.20;9.27;;;18.90;58.10;;;;;;10266226;28;20237;-82
2022/04/14 14:02:30;;;;;;;26.67;13.30;;;18.50;58.60;;;;;;10264840;28;20338;-79
2022/04/14 14:07:32;;;;;;;28.67;13.57;;;19.20;58.60;;;;;;10267718;28;20253;-79
2022/04/14 14:12:39;;;;;;;35.80;17.73;;;19.60;59.50;;;;;;10291779;28;20241;-81
2022/04/14 14:23:08;;;;;;;40.03;19.03;;;19.80;57.40;;;;;;10254505;29;20246;-81
2022/04/14 14:28:11;;;;;;;27.77;14.07;;;19.80;58.90;;;;;;10263953;29;20199;-85
2022/04/14 14:33:13;;;;;;;37.20;18.63;;;19.90;58.50;;;;;;10264070;29;20217;-81
2022/04/14 14:38:16;;;;;;;20.13;11.70;;;19.60;57.40;;;;;;10242524;29;20265;-80
2022/04/14 14:43:21;;;;;;;21.53;12.23;;;19.70;58.00;;;;;;10263243;29;20274;-78
2022/04/14 14:48:26;;;;;;;15.77;9.70;;;19.70;57.80;;;;;;10253597;29;20360;-79
2022/04/14 14:53:29;;;;;;;19.90;12.20;;;20.00;72.60;;;;;;10255335;28;20301;-79
2022/04/14 15:03:53;;;;;;;8.77;6.93;;;19.90;57.30;;;;;;10252059;29;20234;-81
2022/04/14 15:08:56;;;;;;;32.73;18.53;;;19.90;57.20;;;;;;10252511;29;20297;-79
2022/04/14 15:13:59;;;;;;;39.47;21.23;;;19.30;58.80;;;;;;10249294;29;20241;-80
2022/04/14 15:19:03;;;;;;;31.27;19.37;;;19.00;60.30;;;;;;10252595;28;20332;-80
2022/04/14 15:24:06;;;;;;;33.57;18.67;;;18.80;59.80;;;;;;10272451;28;20346;-80
2022/04/14 15:29:08;;;;;;;27.77;15.50;;;18.70;60.40;;;;;;10290692;28;20238;-79
2022/04/14 15:39:23;;;;;;;19.53;11.17;;;18.50;61.30;;;;;;10236925;29;20269;-79
2022/04/14 15:44:25;;;;;;;21.50;11.63;;;18.40;61.50;;;;;;10224046;29;20239;-80
2022/04/14 15:49:28;;;;;;;19.83;9.50;;;18.40;61.70;;;;;;10202308;29;20286;-79
2022/04/14 15:54:37;;;;;;;45.40;23.60;;;18.30;62.60;;;;;;10284200;23;20256;-79
2022/04/14 15:59:41;;;;;;;12.67;8.67;;;18.30;63.30;;;;;;10330983;23;20746;-79
2022/04/14 16:04:43;;;;;;;12.50;8.70;;;18.10;64.50;;;;;;10326873;28;20259;-79
2022/04/14 16:15:07;;;;;;;13.50;7.60;;;17.90;65.00;;;;;;10328926;28;20240;-79
2022/04/14 16:20:10;;;;;;;36.37;10.13;;;17.90;65.20;;;;;;10311358;28;20307;-79
2022/04/14 16:25:13;;;;;;;15.73;7.13;;;17.80;65.30;;;;;;10310813;28;20305;-79
2022/04/14 16:30:16;;;;;;;65.70;44.33;;;17.80;65.10;;;;;;10328028;28;20637;-79
2022/04/14 16:35:20;;;;;;;14.73;12.10;;;17.80;65.20;;;;;;10327880;28;20771;-79
2022/04/14 16:40:22;;;;;;;31.37;12.30;;;17.70;64.70;;;;;;10326802;28;20339;-79
2022/04/14 16:45:25;;;;;;;13.63;9.73;;;17.70;65.70;;;;;;10310107;28;20275;-79
2022/04/14 16:50:27;;;;;;;30.13;16.13;;;17.50;67.40;;;;;;10326833;28;20699;-79
2022/04/14 16:55:30;;;;;;;61.63;31.63;;;17.40;67.60;;;;;;10344010;23;20811;-79
2022/04/14 17:00:32;;;;;;;20.20;11.83;;;17.40;68.00;;;;;;10310115;28;20373;-79
2022/04/14 17:05:35;;;;;;;18.93;12.17;;;17.20;68.20;;;;;;10328623;28;20271;-78
2022/04/14 17:10:37;;;;;;;17.23;11.47;;;17.20;68.40;;;;;;10327530;28;20629;-79
2022/04/14 17:15:41;;;;;;;16.70;10.40;;;17.20;69.30;;;;;;10310143;28;20306;-79
2022/04/14 17:20:43;;;;;;;29.57;12.47;;;17.00;68.80;;;;;;10327548;28;20256;-79
2022/04/14 17:25:47;;;;;;;11.57;8.30;;;16.90;69.90;;;;;;10327059;28;20690;-79
2022/04/14 17:30:49;;;;;;;13.80;6.20;;;16.80;67.70;;;;;;10325898;28;20256;-78
2022/04/14 17:35:52;;;;;;;6.57;5.23;;;17.00;69.60;;;;;;10309732;28;20315;-79
2022/04/14 17:40:54;;;;;;;7.00;5.47;;;16.70;70.10;;;;;;10327135;28;20330;-79
2022/04/14 17:45:57;;;;;;;14.97;5.60;;;16.50;73.60;;;;;;10334899;28;20236;-79
2022/04/14 17:50:59;;;;;;;10.13;5.73;;;16.50;73.80;;;;;;10333937;28;20634;-79
2022/04/14 17:56:02;;;;;;;11.00;5.30;;;16.40;75.00;;;;;;10282343;28;20233;-79
2022/04/14 18:01:05;;;;;;;6.77;5.20;;;15.90;77.00;;;;;;10294237;28;20280;-79
2022/04/14 18:06:08;;;;;;;15.27;9.27;;;16.20;69.10;;;;;;10292809;28;20292;-79
2022/04/14 18:11:10;;;;;;;10.43;5.87;;;16.00;74.10;;;;;;10292063;28;20244;-79
2022/04/14 18:16:13;;;;;;;6.50;4.90;;;15.70;76.60;;;;;;10293524;28;20251;-79
2022/04/14 18:21:16;;;;;;;6.43;5.10;;;16.10;76.00;;;;;;10276073;28;20265;-79
2022/04/14 18:26:18;;;;;;;9.00;6.07;;;15.90;73.20;;;;;;10275600;28;20260;-79
2022/04/14 18:31:21;;;;;;;12.03;7.13;;;15.90;78.90;;;;;;10292416;28;20293;-79
2022/04/14 18:36:23;;;;;;;11.80;6.90;;;15.50;75.90;;;;;;10290619;28;20248;-80
2022/04/14 18:41:26;;;;;;;10.17;7.10;;;15.80;79.60;;;;;;10291626;28;20268;-80
2022/04/14 18:46:28;;;;;;;15.83;8.87;;;15.50;82.20;;;;;;10290591;28;20634;-80
2022/04/14 18:51:31;;;;;;;16.10;8.53;;;15.20;85.20;;;;;;10331332;23;20305;-79
2022/04/14 18:56:34;;;;;;;19.67;14.57;;;15.20;85.10;;;;;;10314212;28;20233;-79
2022/04/14 19:01:36;;;;;;;11.07;7.87;;;15.00;87.80;;;;;;10332648;28;21060;-79
2022/04/14 19:06:39;;;;;;;17.00;10.50;;;14.90;81.50;;;;;;10330861;28;20237;-80
2022/04/14 19:11:41;;;;;;;22.33;12.30;;;14.90;88.20;;;;;;10325618;28;20674;-80
2022/04/14 19:16:44;;;;;;;18.43;10.30;;;15.00;90.30;;;;;;10310254;28;20255;-79
2022/04/14 19:21:47;;;;;;;18.40;10.60;;;15.20;86.80;;;;;;10274795;28;20295;-86
2022/04/14 19:26:50;;;;;;;18.93;10.87;;;15.20;90.90;;;;;;10329948;28;20209;-81
2022/04/14 19:31:52;;;;;;;21.80;11.63;;;15.20;91.40;;;;;;10313892;28;20303;-81
2022/04/14 19:36:56;;;;;;;12.60;9.53;;;15.10;92.20;;;;;;10331015;28;20215;-81
2022/04/14 19:41:58;;;;;;;14.13;9.60;;;14.40;96.10;;;;;;10312111;28;20326;-81
2022/04/14 19:47:01;;;;;;;12.63;8.57;;;14.40;97.70;;;;;;9969559;28;10000506;-81
2022/04/14 19:52:03;;;;;;;9.83;7.17;;;14.80;92.70;;;;;;10309987;28;20794;-83
2022/04/14 19:57:06;;;;;;;10.30;7.80;;;14.90;90.60;;;;;;10288870;28;20237;-81
2022/04/14 20:02:09;;;;;;;19.73;11.80;;;15.60;89.10;;;;;;10269884;28;20905;-81
2022/04/14 20:07:12;;;;;;;25.37;13.87;;;16.00;92.50;;;;;;10247354;28;20711;-81
2022/04/14 20:12:15;;;;;;;24.47;13.60;;;15.50;95.70;;;;;;10343639;23;20288;-80
2022/04/14 20:17:18;;;;;;;18.77;11.37;;;15.00;97.60;;;;;;10287487;28;20247;-81
2022/04/14 20:22:20;;;;;;;9.87;6.67;;;14.90;95.00;;;;;;10286319;28;20650;-81
2022/04/14 20:27:23;;;;;;;16.93;12.03;;;15.50;84.30;;;;;;10290764;28;20677;-81
2022/04/14 20:32:26;;;;;;;19.83;13.63;;;15.20;93.00;;;;;;10273357;28;20248;-80
2022/04/14 20:37:28;;;;;;;12.03;8.57;;;14.40;99.70;;;;;;10286070;28;20245;-81
2022/04/14 20:42:31;;;;;;;30.73;18.77;;;14.90;88.90;;;;;;10297442;28;20326;-81
2022/04/14 20:47:34;;;;;;;41.20;26.60;;;14.70;96.80;;;;;;10290826;28;20241;-81
2022/04/14 20:52:37;;;;;;;15.80;10.47;;;14.20;99.90;;;;;;10267903;28;20253;-81
2022/04/14 20:57:40;;;;;;;8.50;6.60;;;14.80;91.20;;;;;;10291325;28;20299;-82
2022/04/14 21:02:42;;;;;;;9.80;6.67;;;15.40;84.10;;;;;;10293970;28;20676;-83
2022/04/14 21:07:46;;;;;;;9.83;6.53;;;15.70;82.00;;;;;;10280975;28;20210;-84
2022/04/14 21:12:48;;;;;;;10.87;7.87;;;15.70;81.40;;;;;;10321880;28;20311;-84
2022/04/14 21:17:57;;;;;;;12.87;8.10;;;15.60;83.80;;;;;;10317853;28;20208;-88
2022/04/14 21:22:59;;;;;;;16.23;11.97;;;15.10;88.40;;;;;;10283520;28;20578;-81
2022/04/14 21:28:03;;;;;;;15.80;11.97;;;15.10;92.80;;;;;;10283142;28;20280;-82
2022/04/14 21:33:08;;;;;;;11.07;8.23;;;13.90;99.50;;;;;;10288847;28;20303;-84
2022/04/14 21:38:11;;;;;;;14.37;10.00;;;13.50;99.40;;;;;;10311128;28;20212;-82
2022/04/14 21:43:34;;;;;;;13.30;9.03;;;14.00;93.70;;;;;;10309438;28;20252;-82
2022/04/14 21:48:36;;;;;;;11.20;7.03;;;14.20;92.70;;;;;;10304668;28;20210;-83
2022/04/14 21:53:39;;;;;;;9.40;7.20;;;14.60;88.30;;;;;;10293699;28;20615;-82
2022/04/14 21:58:42;;;;;;;10.20;8.27;;;14.60;89.70;;;;;;10273308;28;20288;-80
2022/04/14 22:03:48;;;;;;;7.30;5.80;;;14.30;90.70;;;;;;10292212;28;20257;-80
2022/04/14 22:08:51;;;;;;;7.57;6.47;;;14.70;86.30;;;;;;10287894;28;20660;-80
2022/04/14 22:13:54;;;;;;;11.13;8.93;;;15.20;85.20;;;;;;10287541;28;20682;-80
2022/04/14 22:18:58;;;;;;;10.07;7.33;;;14.40;94.10;;;;;;10272746;28;20269;-80
2022/04/14 22:24:00;;;;;;;11.77;7.57;;;13.30;99.20;;;;;;10290438;28;20265;-81
2022/04/14 22:29:05;;;;;;;9.43;6.80;;;13.10;96.10;;;;;;10295493;28;20216;-80
2022/04/14 22:34:09;;;;;;;6.67;5.77;;;14.00;90.90;;;;;;10291617;28;20271;-80
2022/04/14 22:39:11;;;;;;;9.63;7.03;;;13.90;90.70;;;;;;10306010;28;20244;-80
2022/04/14 22:44:14;;;;;;;40.13;20.43;;;14.10;92.40;;;;;;10318253;28;20307;-80
2022/04/14 22:49:16;;;;;;;24.20;13.57;;;13.40;99.90;;;;;;10318440;28;20304;-80
2022/04/14 22:54:18;;;;;;;16.97;12.17;;;13.00;99.80;;;;;;10312706;28;20290;-80
2022/04/14 22:59:21;;;;;;;22.53;13.20;;;13.20;97.40;;;;;;10292370;28;20292;-80
2022/04/14 23:04:24;;;;;;;8.77;5.93;;;12.40;99.90;;;;;;10327429;28;20315;-80
2022/04/14 23:09:26;;;;;;;12.40;8.40;;;13.40;93.90;;;;;;10298043;28;20309;-80
2022/04/14 23:14:30;;;;;;;14.77;7.77;;;14.00;91.00;;;;;;10263482;28;20304;-80
2022/04/14 23:19:32;;;;;;;7.83;5.63;;;13.90;93.30;;;;;;10294170;28;21051;-80
2022/04/14 23:24:35;;;;;;;9.23;6.83;;;14.30;90.60;;;;;;10306671;23;20333;-81
2022/04/14 23:29:37;;;;;;;6.73;5.93;;;14.30;91.30;;;;;;10247641;28;20332;-81
2022/04/14 23:34:40;;;;;;;16.93;10.30;;;15.20;84.10;;;;;;10254913;28;20317;-80
2022/04/14 23:44:45;;;;;;;10.90;8.20;;;14.70;90.20;;;;;;10236446;28;20797;-80
2022/04/14 23:49:47;;;;;;;8.17;6.30;;;15.40;90.40;;;;;;10242998;28;20301;-81
2022/04/14 23:54:50;;;;;;;8.00;6.43;;;14.30;90.40;;;;;;10249145;28;20663;-80
2022/04/14 23:59:53;;;;;;;5.30;4.67;;;15.30;83.00;;;;;;10248467;28;20542;-80
